Change the Weather History Date:

Thursday, February 28, 2013

  Actual Average (KTYR) Record (KTYR)
Temperature  
Mean Temperature 45 °F 54 °F  
Max Temperature 55 °F 64 °F 84 °F (1950)
Min Temperature 35 °F 44 °F 24 °F (1962)
Degree Days  
Heating Degree Days 20 12  
Month to date heating degree days 413  
Since 1 July heating degree days 1892  
Cooling Degree Days 0 0  
Month to date cooling degree days 8  
Year to date cooling degree days 12  
Moisture  
Dew Point 28 °F    
Average Humidity 53    
Maximum Humidity 81    
Minimum Humidity 31    
Precipitation  
Precipitation 0.00 in 0.16 in 1.16 in (1987)
Month to date precipitation 3.81  
Year to date precipitation 6.87  
Snow  
Snow 0.00 in - - ()
Month to date snowfall  
Since 1 July snowfall  
Snow Depth -    
Sea Level Pressure  
Sea Level Pressure 30.22 in    
Wind  
Wind Speed 10 mph (NW)    
Max Wind Speed 16 mph    
Max Gust Speed 23 mph    
Visibility 10 miles    
Events      
T = Trace of Precipitation, MM = Missing Value Source: NWS Daily Summary

Daily Weather History Graph

Daily Weather History Graph

Search for Another Location

Airport or City:

Trip Planner

Search our weather history database for the weather conditions in past years. The results will help you decide how hot, cold, wet, or windy it might be!

Date:

Astronomy

Feb. 28, 2013 Rise Set
Actual Time 6:50 AM CST 6:18 PM CST
Civil Twilight 6:25 AM CST 6:43 PM CST
Nautical Twilight 5:57 AM CST 7:12 PM CST
Astronomical Twilight 5:28 AM CST 7:40 PM CST
Moon 9:32 PM CST (2/28) 8:13 AM CST (2/28)
Length of Visible Light 12h 17m
Length of Day
11h 28m
Waning Gibbous, 90% of the Moon is Illuminated
Feb 28
Waning Gibbous
Mar 4
Last Quarter
Mar 11
New
Mar 19
First Quarter
Mar 27
Full

Hourly Weather History & Observations

Time (CST) Temp. Windchill Dew Point Humidity Pressure Visibility Wind Dir Wind Speed Gust Speed Precip Events Conditions
12:15 AM 42.8 °F 35.8 °F 28.4 °F 57% 30.21 in 10.0 mi NW 13.8 mph 20.7 mph N/A   Clear
12:35 AM 41.0 °F 34.3 °F 28.4 °F 61% 30.20 in 10.0 mi NW 11.5 mph 17.3 mph N/A   Clear
12:55 AM 41.0 °F 35.2 °F 28.4 °F 61% 30.21 in 10.0 mi NW 9.2 mph - N/A   Clear
1:15 AM 39.2 °F 31.6 °F 28.4 °F 65% 30.21 in 10.0 mi NW 12.7 mph - N/A   Clear
1:35 AM 39.2 °F 31.2 °F 28.4 °F 65% 30.21 in 10.0 mi NW 13.8 mph 17.3 mph N/A   Clear
1:55 AM 39.2 °F 32.5 °F 28.4 °F 65% 30.21 in 10.0 mi NNW 10.4 mph 18.4 mph N/A   Clear
2:15 AM 39.2 °F 32.0 °F 28.4 °F 65% 30.21 in 10.0 mi NNW 11.5 mph - N/A   Clear
2:35 AM 39.2 °F 32.0 °F 28.4 °F 65% 30.21 in 10.0 mi NNW 11.5 mph - N/A   Clear
2:55 AM 37.4 °F 31.4 °F 28.4 °F 70% 30.22 in 10.0 mi NW 8.1 mph - N/A   Clear
3:15 AM 37.4 °F 31.4 °F 28.4 °F 70% 30.22 in 10.0 mi NW 8.1 mph - N/A   Clear
3:35 AM 37.4 °F 31.4 °F 28.4 °F 70% 30.21 in 10.0 mi NNW 8.1 mph - N/A   Clear
3:55 AM 37.4 °F 30.8 °F 28.4 °F 70% 30.22 in 10.0 mi NW 9.2 mph - N/A   Clear
4:15 AM 37.4 °F 32.1 °F 28.4 °F 70% 30.22 in 10.0 mi NW 6.9 mph - N/A   Clear
4:35 AM 37.4 °F 34.9 °F 30.2 °F 75% 30.22 in 10.0 mi West 3.5 mph - N/A   Clear
4:55 AM 35.6 °F 30.7 °F 28.4 °F 75% 30.22 in 10.0 mi WNW 5.8 mph - N/A   Clear
5:15 AM 35.6 °F 31.7 °F 28.4 °F 75% 30.23 in 10.0 mi WNW 4.6 mph - N/A   Clear
5:35 AM 35.6 °F 31.7 °F 28.4 °F 75% 30.23 in 10.0 mi WNW 4.6 mph - N/A   Clear
5:55 AM 35.6 °F 28.6 °F 30.2 °F 81% 30.23 in 10.0 mi NW 9.2 mph - N/A   Clear
6:15 AM 37.4 °F 31.4 °F 30.2 °F 75% 30.23 in 10.0 mi NW 8.1 mph - N/A   Clear
6:35 AM 37.4 °F 28.9 °F 30.2 °F 75% 30.23 in 10.0 mi NW 13.8 mph - N/A   Clear
6:55 AM 37.4 °F 29.8 °F 30.2 °F 75% 30.23 in 7.0 mi NW 11.5 mph - N/A   Clear
7:15 AM 37.4 °F 30.3 °F 30.2 °F 75% 30.23 in 8.0 mi NW 10.4 mph 19.6 mph N/A   Clear
7:35 AM 37.4 °F 28.5 °F 30.2 °F 75% 30.24 in 8.0 mi NW 15.0 mph 18.4 mph N/A   Clear
7:55 AM 37.4 °F 30.3 °F 30.2 °F 75% 30.25 in 8.0 mi NW 10.4 mph - N/A   Clear
8:15 AM 39.2 °F 32.0 °F 30.2 °F 70% 30.26 in 8.0 mi NW 11.5 mph - N/A   Clear
8:35 AM 39.2 °F 31.6 °F 32.0 °F 75% 30.27 in 8.0 mi NW 12.7 mph - N/A   Clear
8:55 AM 41.0 °F 35.2 °F 32.0 °F 70% 30.27 in 8.0 mi NW 9.2 mph - N/A   Clear
9:15 AM 42.8 °F 37.5 °F 30.2 °F 61% 30.28 in 9.0 mi NNW 9.2 mph - N/A   Clear
9:35 AM 42.8 °F 38.0 °F 30.2 °F 61% 30.28 in 9.0 mi NW 8.1 mph 17.3 mph N/A   Clear
9:55 AM 44.6 °F 39.7 °F 30.2 °F 57% 30.28 in 8.0 mi NW 9.2 mph - N/A   Clear
10:15 AM 44.6 °F 40.2 °F 30.2 °F 57% 30.28 in 9.0 mi NW 8.1 mph - N/A   Clear
10:35 AM 46.4 °F 42.4 °F 30.2 °F 53% 30.28 in 9.0 mi NW 8.1 mph - N/A   Clear
10:55 AM 46.4 °F 41.1 °F 28.4 °F 50% 30.28 in 10.0 mi NNW 11.5 mph - N/A   Clear
11:15 AM 48.2 °F - 26.6 °F 43% 30.28 in 9.0 mi NNW 15.0 mph 19.6 mph N/A   Clear
11:35 AM 48.2 °F - 26.6 °F 43% 30.28 in 10.0 mi NNW 10.4 mph 17.3 mph N/A   Clear
11:55 AM 50.0 °F - 26.6 °F 40% 30.27 in 9.0 mi NNW 13.8 mph - N/A   Clear
12:15 PM 51.8 °F - 26.6 °F 38% 30.26 in 10.0 mi NNW 9.2 mph - N/A   Clear
12:35 PM 51.8 °F - 26.6 °F 38% 30.25 in 10.0 mi NNW 8.1 mph 18.4 mph N/A   Clear
12:55 PM 51.8 °F - 28.4 °F 41% 30.24 in 10.0 mi NW 4.6 mph - N/A   Clear
1:15 PM 51.8 °F - 28.4 °F 41% 30.22 in 10.0 mi Calm Calm - N/A   Clear
1:35 PM 53.6 °F - 28.4 °F 38% 30.21 in 10.0 mi WNW 6.9 mph - N/A   Clear
1:55 PM 53.6 °F - 28.4 °F 38% 30.20 in 10.0 mi NW 10.4 mph 18.4 mph N/A   Clear
2:15 PM 55.4 °F - 28.4 °F 36% 30.19 in 10.0 mi NW 11.5 mph 17.3 mph N/A   Clear
2:35 PM 55.4 °F - 28.4 °F 36% 30.19 in 9.0 mi NW 12.7 mph 19.6 mph N/A   Clear
2:55 PM 55.4 °F - 28.4 °F 36% 30.19 in 10.0 mi NW 9.2 mph - N/A   Clear
3:15 PM 55.4 °F - 28.4 °F 36% 30.18 in 10.0 mi NW 16.1 mph 20.7 mph N/A   Clear
3:35 PM 55.4 °F - 28.4 °F 36% 30.18 in 10.0 mi NNW 15.0 mph 20.7 mph N/A   Clear
3:55 PM 55.4 °F - 28.4 °F 36% 30.17 in 10.0 mi NW 13.8 mph 17.3 mph N/A   Clear
4:15 PM 55.4 °F - 26.6 °F 33% 30.17 in 10.0 mi NW 13.8 mph 19.6 mph N/A   Clear
4:35 PM 55.4 °F - 26.6 °F 33% 30.17 in 10.0 mi NW 11.5 mph 23.0 mph N/A   Clear
5:15 PM 55.4 °F - 24.8 °F 31% 30.16 in 10.0 mi NW 9.2 mph - N/A   Clear
5:35 PM 55.4 °F - 26.6 °F 33% 30.16 in 10.0 mi NNW 11.5 mph 17.3 mph N/A   Clear
5:55 PM 53.6 °F - 26.6 °F 35% 30.16 in 10.0 mi NW 6.9 mph - N/A   Clear
6:15 PM 53.6 °F - 26.6 °F 35% 30.16 in 10.0 mi NW 6.9 mph - N/A   Clear
6:35 PM 51.8 °F - 26.6 °F 38% 30.17 in 10.0 mi NW 6.9 mph - N/A   Clear
6:55 PM 50.0 °F - 26.6 °F 40% 30.17 in 10.0 mi NW 4.6 mph - N/A   Clear
7:15 PM 50.0 °F - 26.6 °F 40% 30.17 in 10.0 mi NW 6.9 mph - N/A   Clear
7:35 PM 50.0 °F - 24.8 °F 37% 30.18 in 10.0 mi NW 5.8 mph - N/A   Clear
7:55 PM 48.2 °F - 26.6 °F 43% 30.18 in 10.0 mi NW 5.8 mph - N/A   Clear
8:15 PM 48.2 °F - 26.6 °F 43% 30.19 in 10.0 mi NW 6.9 mph - N/A   Clear
8:35 PM 48.2 °F - 26.6 °F 43% 30.19 in 10.0 mi NW 6.9 mph - N/A   Clear
8:55 PM 48.2 °F - 26.6 °F 43% 30.19 in 10.0 mi NW 6.9 mph - N/A   Clear
9:15 PM 48.2 °F - 28.4 °F 46% 30.20 in 10.0 mi NW 8.1 mph - N/A   Clear
9:35 PM 48.2 °F - 26.6 °F 43% 30.21 in 10.0 mi NW 10.4 mph 16.1 mph N/A   Clear
9:55 PM 48.2 °F - 24.8 °F 40% 30.21 in 10.0 mi NW 11.5 mph - N/A   Clear
10:15 PM 48.2 °F - 24.8 °F 40% 30.22 in 10.0 mi NW 10.4 mph - N/A   Clear
10:35 PM 46.4 °F 41.9 °F 24.8 °F 43% 30.22 in 10.0 mi NNW 9.2 mph - N/A   Clear
10:55 PM 46.4 °F 42.4 °F 26.6 °F 46% 30.22 in 10.0 mi NNW 8.1 mph - N/A   Clear
11:15 PM 46.4 °F 41.9 °F 26.6 °F 46% 30.21 in 10.0 mi NNW 9.2 mph - N/A   Clear
11:35 PM 44.6 °F 40.2 °F 26.6 °F 49% 30.21 in 10.0 mi NNW 8.1 mph - N/A   Clear
11:55 PM 44.6 °F 39.7 °F 26.6 °F 49% 30.22 in 10.0 mi NW 9.2 mph - N/A   Clear